História da METAR Noord Nederlandse Zweefvliegclub (NL-0036)

2 de julho de 2022

Hora Código Clima Temp. Visibilidade Tecto Vento METAR/SPECI
9:25 da tarde
V
66 °F 6¼ mi+ - 120° 120° 7 kt METAR EHMA 021925Z AUTO 12007KT 9999 NSC 19/14 Q1018
8:55 da tarde
V
68 °F 6¼ mi+ - 110° 110° 4 kt METAR EHMA 021855Z AUTO 11004KT 070V140 9999 NSC 20/14 Q1018
8:25 da tarde
V
68 °F 6¼ mi+ - Var Var 1 kt METAR EHMA 021825Z AUTO VRB01KT 9999 NSC 20/12 Q1018
7:55 da tarde
V
68 °F 6¼ mi+ - Var Var 1 kt METAR EHMA 021755Z AUTO VRB01KT 9999 NSC 20/11 Q1018
7:25 da tarde
V
68 °F 6¼ mi+ - 240° 240° 3 kt METAR EHMA 021725Z AUTO 24003KT 9999 NSC 20/11 Q1019
6:55 da tarde
V
68 °F 6¼ mi+ - 230° 230° 4 kt METAR EHMA 021655Z AUTO 23004KT 200V260 9999 NSC 20/11 Q1019
6:25 da tarde
V
68 °F 6¼ mi+ - 240° 240° 6 kt METAR EHMA 021625Z AUTO 24006KT 9999 NSC 20/12 Q1019
5:55 da tarde
V
68 °F 6¼ mi+ - 230° 230° 6 kt METAR EHMA 021555Z AUTO 23006KT 9999 NSC 20/11 Q1019
5:25 da tarde
V
66 °F 6¼ mi+ - 250° 250° 6 kt METAR EHMA 021525Z AUTO 25006KT 9999 NSC 19/12 Q1020
4:55 da tarde
V
66 °F 6¼ mi+ - 230° 230° 7 kt METAR EHMA 021455Z AUTO 23007KT 9999 NSC 19/12 Q1020
4:25 da tarde
V
66 °F 6¼ mi+ - 250° 250° 8 kt METAR EHMA 021425Z AUTO 25008KT 9999 NSC 19/12 Q1020
3:55 da tarde
V
66 °F 6¼ mi+ - 250° 250° 9 kt METAR EHMA 021355Z AUTO 25009KT 9999 SCT036 SCT043 19/12 Q1020
3:25 da tarde
V
66 °F 6¼ mi+ - 250° 250° 9 kt METAR EHMA 021325Z AUTO 25009KT 210V270 9999 FEW036 SCT041 19/12 Q1020
2:55 da tarde
V
66 °F 6¼ mi+ - 240° 240° 11 kt METAR EHMA 021255Z AUTO 24011KT 9999 FEW035 SCT047 19/11 Q1020
2:25 da tarde
V
64 °F 6¼ mi+ - 240° 240° 12 kt METAR EHMA 021225Z AUTO 24012KT 9999 FEW035 SCT047 18/11 Q1020
1:55 da tarde
V
66 °F 6¼ mi+ - 240° 240° 12 kt METAR EHMA 021155Z AUTO 24012KT 9999 FEW047 19/11 Q1020
1:25 da tarde
V
64 °F 6¼ mi+ - 240° 240° 14 kt METAR EHMA 021125Z AUTO 24014KT 9999 FEW037 18/10 Q1021
12:55 da tarde
V
64 °F 6¼ mi+ - 230° 230° 15 kt METAR EHMA 021055Z AUTO 23015KT 9999 FEW037 18/10 Q1021
12:25 da tarde
V
64 °F 6¼ mi+ - 210° 210° 13 kt METAR EHMA 021025Z AUTO 21013KT 9999 FEW027 18/11 Q1021
11:55 da manhã
V
64 °F 6¼ mi+ - 230° 230° 13 kt METAR EHMA 020955Z AUTO 23013KT 9999 FEW027 18/11 Q1021
11:25 da manhã
V
64 °F 6¼ mi+ - 220° 220° 15 kt METAR EHMA 020925Z AUTO 22015KT 9999 FEW026 18/11 Q1021
10:55 da manhã
V
64 °F 6¼ mi+ - 210° 210° 14 kt METAR EHMA 020855Z AUTO 21014KT 9999 FEW025 18/11 Q1020
10:25 da manhã
V
63 °F 6¼ mi+ - 200° 200° 13 kt METAR EHMA 020825Z AUTO 20013KT 9999 FEW017 SCT034 17/12 Q1020
9:55 da manhã
V
63 °F 6¼ mi+ - 210° 210° 12 kt METAR EHMA 020755Z AUTO 21012KT 9999 FEW016 SCT032 17/13 Q1020
9:25 da manhã
V
63 °F 6¼ mi+ - 210° 210° 15 kt METAR EHMA 020725Z AUTO 21015KT 9999 FEW016 17/13 Q1020
8:55 da manhã
V
61 °F 6¼ mi+ - Var Var 17 kt METAR EHMA 020655Z AUTO VRB17KT 9999 FEW017 16/13 Q1020
8:25 da manhã
V
61 °F 6¼ mi+ - 200° 200° 18 kt METAR EHMA 020625Z AUTO 20018KT 180V240 9999 FEW017 16/13 Q1020
7:55 da manhã
V
59 °F 6¼ mi+ - 200° 200° 17 kt METAR EHMA 020555Z AUTO 20017KT 9999 FEW021 15/13 Q1020
7:25 da manhã
V
59 °F 6¼ mi+ - 200° 200° 18 kt METAR EHMA 020525Z AUTO 20018KT 9999 FEW021 15/12 Q1019
6:55 da manhã
V
57 °F 6¼ mi+ - 200° 200° 18 kt METAR EHMA 020455Z AUTO 20018KT 9999 NCD 14/12 Q1019
6:25 da manhã
V
59 °F 6¼ mi+ - 200° 200° 19 kt METAR EHMA 020425Z AUTO 20019KT 9999 NCD 15/12 Q1019
5:55 da manhã
V
59 °F 6¼ mi+ - 200° 200° 19 kt METAR EHMA 020355Z AUTO 20019KT 180V240 9999 NCD 15/12 Q1019
5:25 da manhã
V
59 °F 6¼ mi+ - 200° 200° 19 kt METAR EHMA 020325Z AUTO 20019KT 180V240 9999 NCD 15/11 Q1019
4:55 da manhã
V
59 °F 6¼ mi+ - 210° 210° 18 kt METAR EHMA 020255Z AUTO 21018KT 180V240 9999 NCD 15/11 Q1019
4:25 da manhã
V
59 °F 6¼ mi+ - 210° 210° 19 kt METAR EHMA 020225Z AUTO 21019KT 180V240 9999 NCD 15/11 Q1019
3:55 da manhã
V
59 °F 6¼ mi+ - 210° 210° 16 kt METAR EHMA 020155Z AUTO 21016KT 180V250 9999 NCD 15/12 Q1019
3:25 da manhã
V
59 °F 6¼ mi+ - 210° 210° 17 kt METAR EHMA 020125Z AUTO 21017KT 180V240 9999 NCD 15/12 Q1019
2:55 da manhã
V
61 °F 6¼ mi+ - 200° 200° 18 kt METAR EHMA 020055Z AUTO 20018KT 9999 NCD 16/12 Q1019
2:25 da manhã
V
61 °F 6¼ mi+ - 200° 200° 17 kt METAR EHMA 020025Z AUTO 20017KT 180V250 9999 NCD 16/12 Q1019
1:55 da manhã
V
61 °F 6¼ mi+ - 200° 200° 17 kt METAR EHMA 012355Z AUTO 20017KT 9999 NCD 16/12 Q1019
1:25 da manhã
V
61 °F 6¼ mi+ - 210° 210° 16 kt METAR EHMA 012325Z AUTO 21016KT 9999 NCD 16/12 Q1019
12:55 da manhã
V
61 °F 6¼ mi+ - 210° 210° 17 kt METAR EHMA 012255Z AUTO 21017KT 180V270 9999 NSC 16/12 Q1019
12:25 da manhã
V
63 °F 6¼ mi+ - 210° 210° 15 kt METAR EHMA 012225Z AUTO 21015KT 110V250 9999 NSC 17/12 Q1019

1 de julho de 2022

Hora Código Clima Temp. Visibilidade Tecto Vento METAR/SPECI
11:55 da tarde
V
63 °F 6¼ mi+ - 200° 200° 12 kt METAR EHMA 012155Z AUTO 20012KT 9999 FEW025 17/12 Q1019
11:25 da tarde
V
63 °F 6¼ mi+ - 210° 210° 13 kt METAR EHMA 012125Z AUTO 21013KT 9999 SCT023 SCT028 17/13 Q1019
10:55 da tarde
V
63 °F 6¼ mi+ - 230° 230° 13 kt METAR EHMA 012055Z AUTO 23013KT 9999 FEW023 SCT026 17/12 Q1019
10:25 da tarde
V
63 °F 6¼ mi+ - 230° 230° 14 kt METAR EHMA 012025Z AUTO 23014KT 9999 FEW023 17/12 Q1019
9:55 da tarde
V
64 °F 6¼ mi+ - 240° 240° 13 kt METAR EHMA 011955Z AUTO 24013KT 9999 FEW025 18/12 Q1018
9:25 da tarde
V
64 °F 6¼ mi+ - 240° 240° 15 kt METAR EHMA 011925Z AUTO 24015KT 9999 FEW028 18/12 Q1018
8:55 da tarde
V
64 °F 6¼ mi+ - 240° 240° 17 kt METAR EHMA 011855Z AUTO 24017KT 9999 FEW025 18/12 Q1018
8:25 da tarde
V
64 °F 6¼ mi+ - 240° 240° 17 kt METAR EHMA 011825Z AUTO 24017KT 9999 FEW024 18/12 Q1018
7:55 da tarde
V
64 °F 6¼ mi+ - 240° 240° 17 kt METAR EHMA 011755Z AUTO 24017KT 9999 FEW023 SCT030 18/12 Q1018
7:25 da tarde
V
64 °F 6¼ mi+ - 230° 230° 18 kt METAR EHMA 011725Z AUTO 23018KT 9999 FEW023 SCT029 18/12 Q1018
6:55 da tarde
V
64 °F 6¼ mi+ - 240° 240° 19 kt METAR EHMA 011655Z AUTO 24019KT 9999 FEW024 SCT038 18/12 Q1017
6:25 da tarde
V
64 °F 6¼ mi+ - 240° 240° 19 kt METAR EHMA 011625Z AUTO 24019KT 9999 FEW025 SCT032 18/12 Q1017
5:55 da tarde
V
64 °F 6¼ mi+ - 240° 240° 19 kt METAR EHMA 011555Z AUTO 24019KT 9999 FEW027 18/12 Q1017
5:25 da tarde
V
64 °F 6¼ mi+ - 240° 240° 18 kt METAR EHMA 011525Z AUTO 24018KT 9999 FEW028 18/11 Q1017
4:55 da tarde
V
64 °F 6¼ mi+ - 240° 240° 16 kt METAR EHMA 011455Z AUTO 24016KT 9999 FEW028 18/11 Q1017
4:25 da tarde
V
64 °F 6¼ mi+ - 240° 240° 18 kt METAR EHMA 011425Z AUTO 24018KT 9999 FEW029 18/10 Q1017
3:55 da tarde
V
64 °F 6¼ mi+ - 240° 240° 15 kt METAR EHMA 011355Z AUTO 24015KT 9999 FEW029 18/11 Q1016
3:25 da tarde
V
63 °F 6¼ mi+ - 240° 240° 17 kt METAR EHMA 011325Z AUTO 24017KT 9999 FEW028 17/10 Q1016
2:55 da tarde
V
63 °F 6¼ mi+ - 240° 240° 17 kt METAR EHMA 011255Z AUTO 24017KT 9999 FEW022 17/11 Q1016
2:25 da tarde
V
63 °F 6¼ mi+ - 250° 250° 14 kt METAR EHMA 011225Z AUTO 25014KT 9999 FEW022 17/12 Q1016
12:55 da tarde
V
63 °F 6¼ mi+ - 250° 250° 14 kt METAR EHMA 011055Z AUTO 25014KT 9999 FEW024 17/12 Q1016
12:25 da tarde
V
63 °F 6¼ mi+ - 250° 250° 16 kt METAR EHMA 011025Z AUTO 25016KT 9999 FEW024 SCT029 17/11 Q1015
11:55 da manhã
V
63 °F 6¼ mi+ - 240° 240° 15 kt METAR EHMA 010955Z AUTO 24015KT 9999 FEW020 SCT031 17/10 Q1015
11:25 da manhã
V
63 °F 6¼ mi+ 4.300 ft 240° 240° 14 kt METAR EHMA 010925Z AUTO 24014KT 9999 FEW020 SCT026 BKN043 17/12 Q1015
10:55 da manhã
V
63 °F 6¼ mi+ - 230° 230° 16 kt METAR EHMA 010855Z AUTO 23016KT 9999 FEW024 17/11 Q1015
10:25 da manhã
V
63 °F 6¼ mi+ 3.100 ft 240° 240° 14 kt METAR EHMA 010825Z AUTO 24014KT 9999 FEW015 SCT023 BKN031 17/12 Q1014
9:55 da manhã
M
61 °F 6¼ mi+ 2.100 ft Var Var 15 kt METAR EHMA 010755Z AUTO VRB15KT 9999 FEW012 SCT018 BKN021 16/14 Q1014
9:25 da manhã
M
61 °F 6¼ mi+ 2.000 ft Var Var 12 kt METAR EHMA 010725Z AUTO VRB12KT 9999 FEW012 SCT016 BKN020 16/13 Q1014
8:55 da manhã
M
61 °F 6¼ mi+ 1.500 ft Var Var 7 kt METAR EHMA 010655Z AUTO VRB07KT 9999 BKN015 BKN018 BKN023 16/13 Q1014
8:25 da manhã
M
61 °F 6¼ mi+ 1.500 ft 240° 240° 11 kt METAR EHMA 010625Z AUTO 24011KT 9999 BKN015 BKN020 BKN024 16/13 Q1014
7:55 da manhã
V
61 °F 6¼ mi+ - 250° 250° 12 kt METAR EHMA 010555Z AUTO 25012KT 9999 FEW016 16/12 Q1014
7:25 da manhã
V
61 °F 6¼ mi+ - 250° 250° 13 kt METAR EHMA 010525Z AUTO 25013KT 9999 FEW018 16/12 Q1013
6:55 da manhã
V
61 °F 6¼ mi+ - 250° 250° 14 kt METAR EHMA 010455Z AUTO 25014KT 9999 FEW019 SCT035 16/12 Q1013
6:25 da manhã
V
61 °F 6¼ mi+ 3.600 ft 260° 260° 14 kt METAR EHMA 010425Z AUTO 26014KT 9999 FEW017 SCT021 BKN036 16/13 Q1013
5:55 da manhã
V
61 °F 6¼ mi+ 3.700 ft 260° 260° 13 kt METAR EHMA 010355Z AUTO 26013KT 9999 FEW020 SCT032 BKN037 16/13 Q1013
5:25 da manhã
V
61 °F 6¼ mi+ - 260° 260° 14 kt METAR EHMA 010325Z AUTO 26014KT 9999 FEW030 SCT039 16/13 Q1013
4:55 da manhã
V
61 °F 6¼ mi+ 3.400 ft 250° 250° 15 kt METAR EHMA 010255Z AUTO 25015KT 9999 FEW012 SCT021 BKN034 16/13 Q1013
4:25 da manhã
M
61 °F 6¼ mi+ 2.300 ft 260° 260° 14 kt METAR EHMA 010225Z AUTO 26014KT 9999 FEW010 SCT016 BKN023 16/13 Q1012
3:55 da manhã
V
61 °F 6¼ mi+ - 280° 280° 14 kt METAR EHMA 010155Z AUTO 28014KT 9999 FEW009 SCT027 16/14 Q1012
3:25 da manhã
M
59 °F 6¼ mi+ 1.600 ft 270° 270° 17 kt METAR EHMA 010125Z AUTO 27017KT 9999 FEW006 SCT013 BKN016 15/14 Q1012
2:55 da manhã
M
59 °F 6¼ mi+ 1.600 ft 260° 260° 16 kt METAR EHMA 010055Z AUTO 26016KT 9999 FEW005 SCT010 BKN016 15/14 Q1013
2:25 da manhã
M
59 °F 6¼ mi+ 1.300 ft 280° 280° 15 kt METAR EHMA 010025Z AUTO 28015KT 9999 -RA FEW000 SCT007 BKN013 FEW015CB 15/14 Q1012
1:55 da manhã
M
59 °F 4⅜ mi 1.000 ft 280° 280° 15 kt METAR EHMA 302355Z AUTO 28015KT 7000 -SHRA FEW000 SCT009 BKN010 BKN015CB 15/14 Q1012 REGRRA
1:25 da manhã
M
61 °F 6¼ mi+ 1.500 ft 290° 290° 16 kt METAR EHMA 302325Z AUTO 29016KT 9999 FEW007 SCT009 BKN015CB 16/14 Q1013
12:55 da manhã
M
59 °F 6¼ mi+ 2.000 ft 300° 300° 24 kt METAR EHMA 302255Z AUTO 30024KT 9999 FEW002 SCT010 BKN020 15/14 Q1011
12:25 da manhã
M
59 °F 6¼ mi+ 1.200 ft 300° 300° 30 kt METAR EHMA 302225Z AUTO 30030KT 9999 -DZ FEW002 SCT008 BKN012 FEW015CB 15/14 Q1010 RERA REDZ

30 de junho de 2022

Hora Código Clima Temp. Visibilidade Tecto Vento METAR/SPECI
11:55 da tarde
I
57 °F 2½ mi 1.500 ft 300° 300° 25 kt METAR EHMA 302155Z AUTO 30025KT 4100 TSRA FEW000 SCT007 BKN015CB 14/14 Q1011
11:25 da tarde
I
57 °F 1⅝ mi 1.500 ft 300° 300° 29 kt METAR EHMA 302125Z AUTO 30029KT 2600 TSRA FEW000 SCT005 BKN015CB 14/14 Q1010
10:55 da tarde
I
57 °F 1⅛ mi 1.400 ft 290° 290° 27 kt METAR EHMA 302055Z AUTO 29027KT 1900 +TSRA FEW000 SCT005 BKN014 BKN015CB 14/14 Q1011
10:25 da tarde
I
61 °F 1⅞ mi 1.300 ft 290° 290° 21 - 31 kt METAR EHMA 302025Z AUTO 29021G31KT 3000 +TSRA FEW000 SCT010 BKN013 BKN015CB 16/15 Q1010 REDZ
9:55 da tarde
V
63 °F 6¼ mi+ 4.500 ft 290° 290° 26 kt METAR EHMA 301955Z AUTO 29026KT 9999 -TSRA FEW008 SCT010 FEW015CB BKN045 17/15 Q1011
9:25 da tarde
V
63 °F 6¼ mi+ - 300° 300° 27 kt METAR EHMA 301925Z AUTO 30027KT 9999 FEW006 SCT010 17/15 Q1010
8:55 da tarde
V
63 °F 6¼ mi+ 4.300 ft 300° 300° 25 kt METAR EHMA 301855Z AUTO 30025KT 9999 FEW006 BKN043 17/16 Q1010
8:25 da tarde
V
64 °F 6¼ mi+ - 300° 300° 21 kt METAR EHMA 301825Z AUTO 30021KT 9999 FEW006 SCT043 18/16 Q1010
7:55 da tarde
V
64 °F 6¼ mi+ - 320° 320° 18 kt METAR EHMA 301755Z AUTO 32018KT 9999 FEW043 18/16 Q1010
7:25 da tarde
V
64 °F 6¼ mi+ - 320° 320° 16 kt METAR EHMA 301725Z AUTO 32016KT 9999 NSC 18/16 Q1010
6:55 da tarde
V
64 °F 6¼ mi+ - 320° 320° 15 kt METAR EHMA 301655Z AUTO 32015KT 9999 NSC 18/16 Q1010
6:25 da tarde
V
64 °F 6¼ mi+ - 300° 300° 15 kt METAR EHMA 301625Z AUTO 30015KT 9999 NSC 18/16 Q1011
5:55 da tarde
V
64 °F 6¼ mi+ - 330° 330° 11 kt METAR EHMA 301555Z AUTO 33011KT 9999 NSC 18/16 Q1011
5:25 da tarde
V
64 °F 6¼ mi+ - 330° 330° 12 kt METAR EHMA 301525Z AUTO 33012KT 9999 NSC 18/16 Q1011
4:55 da tarde
V
64 °F 6¼ mi+ - 300° 300° 14 kt METAR EHMA 301455Z AUTO 30014KT 9999 NSC 18/16 Q1011
Dados mais antigos

Baixe nosso aplicativo

Fácil acesso a todas as condições meteorológicas da aviação no seu celular e no seu tablet.
Com muitas características não disponíveis no site, como suporte offline e uma lista pessoal de aeroportos.

Nós e terceiros acompanhamos seu comportamento na internet em nosso site com cookies. Se você continuar, nós assumimos que você concorda com nossa política de cookies. Saiba mais